Skip Navigation

Christman Field Latest Observations

Switch to metric unitsOther observation timesWeekly graphs

Date Time
MST
Temp
°F
RH
%
DewPt
°F
Wind
mph
Dir
°
Gust
mph
Dir
°
Press
in Hg
Solar
W/m^2
Prec
in
2021-09-19 21:30 66.9 41.5 42.8 23.9 318 31.3 317 24.719 0.0 0.00
2021-09-19 21:25 67.9 39.5 42.4 22.5 324 29.2 339 24.716 0.0 0.00
2021-09-19 21:20 68.5 37.1 41.3 19.5 347 27.8 337 24.707 0.0 0.00
2021-09-19 21:15 68.3 34.8 39.5 10.8 3 17.9 350 24.700 0.0 0.00
2021-09-19 21:10 69.7 34.1 40.1 13.1 348 18.3 342 24.696 0.0 0.00
2021-09-19 21:05 73.4 30.5 40.5 10.0 337 15.6 7 24.692 0.0 0.00
2021-09-19 21:00 75.5 26.6 38.9 4.7 12 9.4 207 24.687 0.0 0.00
2021-09-19 20:55 75.7 26.3 38.7 9.7 174 14.2 185 24.683 0.0 0.00
2021-09-19 20:50 75.7 26.0 38.4 8.1 155 12.0 172 24.679 0.0 0.00
2021-09-19 20:45 75.7 26.1 38.6 8.6 191 13.4 183 24.679 0.0 0.00
2021-09-19 20:40 76.0 25.8 38.5 7.9 186 12.3 182 24.680 0.0 0.00
2021-09-19 20:35 76.1 25.5 38.3 10.3 191 15.7 208 24.678 0.0 0.00
2021-09-19 20:30 75.8 25.8 38.4 9.2 174 15.6 170 24.679 0.0 0.00
2021-09-19 20:25 76.0 25.4 38.1 11.4 175 16.9 193 24.680 0.0 0.00
2021-09-19 20:20 75.5 25.3 37.6 9.5 196 14.6 191 24.682 0.0 0.00
2021-09-19 20:15 74.9 26.0 37.7 7.3 189 12.6 176 24.680 0.0 0.00
2021-09-19 20:10 74.5 26.1 37.5 7.4 187 10.8 188 24.677 0.0 0.00
2021-09-19 20:05 74.5 26.7 38.0 6.6 184 9.8 187 24.673 0.0 0.00
2021-09-19 20:00 74.8 25.6 37.3 6.7 202 9.6 179 24.669 0.0 0.00
2021-09-19 19:55 74.9 25.5 37.2 6.1 173 8.5 177 24.669 0.0 0.00
2021-09-19 19:50 75.7 24.9 37.4 5.5 191 8.5 199 24.667 0.0 0.00
2021-09-19 19:45 76.4 23.7 36.6 7.1 166 11.3 187 24.667 0.0 0.00
2021-09-19 19:40 76.4 23.4 36.3 7.4 185 10.9 190 24.667 0.0 0.00
2021-09-19 19:35 76.6 23.0 36.0 8.0 176 11.0 189 24.668 0.0 0.00
2021-09-19 19:30 76.6 22.7 35.7 8.0 191 11.9 192 24.669 0.0 0.00
2021-09-19 19:25 76.4 23.0 35.9 7.4 193 10.6 178 24.668 0.0 0.00
2021-09-19 19:20 76.6 22.9 36.0 7.8 209 11.6 191 24.670 0.0 0.00
2021-09-19 19:15 76.8 22.6 35.8 9.7 196 13.7 191 24.670 0.0 0.00
2021-09-19 19:10 77.2 22.7 36.2 8.6 194 12.1 201 24.669 0.0 0.00
2021-09-19 19:05 77.5 22.4 36.1 9.7 170 13.0 192 24.668 0.0 0.00